Time;durP1;ratioP1;P1;durP2;ratioP2;P2;SDS_P1;SDS_P2;PMS_P1;PMS_P2;Temp;Humidity;BMP_temperature;BMP_pressure;BME280_temperature;BME280_humidity;BME280_pressure;Samples;Min_cycle;Max_cycle;Signal;HPM_P1;HPM_P2
2022/05/23 00:00:22;;;;;;;;;;;;;;;;;;5050210;28;1980;-66
2022/05/23 00:02:48;;;;;;;;;;;;;;;;;;5051314;28;1921;-66
2022/05/23 00:05:14;;;;;;;;;;;;;;;;;;5046760;28;1954;-65
2022/05/23 00:07:40;;;;;;;;;;;;;;;;;;5055381;28;1886;-66
2022/05/23 00:10:06;;;;;;;;;;;;;;;;;;5055655;28;1372;-66
2022/05/23 00:12:32;;;;;;;;;;;;;;;;;;5044538;28;1589;-66
2022/05/23 00:14:57;;;;;;;;;;;;;;;;;;5061522;28;1323;-66
2022/05/23 00:17:22;;;;;;;;;;;;;;;;;;5062462;28;815;-66
2022/05/23 00:19:48;;;;;;;;;;;;;;;;;;5062155;28;1194;-66
2022/05/23 00:22:14;;;;;;;;;;;;;;;;;;5060759;28;2279;-66
2022/05/23 00:24:41;;;;;;;;;;;;;;;;;;5055098;28;1886;-66
2022/05/23 00:27:08;;;;;;;;;;;;;;;;;;5056816;28;1968;-66
2022/05/23 00:29:33;;;;;;;;;;;;;;;;;;5053020;28;1793;-66
2022/05/23 00:37:27;;;;;;;;;;;;;;;;;;5049986;28;1643;-65
2022/05/23 00:39:53;;;;;;;;;;;;;;;;;;5046078;28;1923;-66
2022/05/23 00:45:06;;;;;;;;;;;;;;;;;;5052036;28;1744;-66
2022/05/23 00:47:34;;;;;;;;;;;;;;;;;;5049152;28;1780;-66
2022/05/23 00:50:00;;;;;;;;;;;;;;;;;;5051502;28;1905;-66
2022/05/23 00:52:32;;;;;;;;;;;;;;;;;;5051309;28;1628;-66
2022/05/23 00:54:59;;;;;;;;;;;;;;;;;;5047088;28;1946;-64
2022/05/23 00:57:38;;;;;;;;;;;;;;;;;;5052610;28;1886;-64
2022/05/23 01:00:05;;;;;;;;;;;;;;;;;;5047016;28;1564;-66
2022/05/23 01:02:30;;;;;;;;;;;;;;;;;;5053925;28;1893;-66
2022/05/23 01:04:56;;;;;;;;;;;;;;;;;;5055473;28;1937;-66
2022/05/23 01:07:21;;;;;;;;;;;;;;;;;;5050163;28;1748;-66
2022/05/23 01:09:47;;;;;;;;;;;;;;;;;;5046090;28;1696;-65
2022/05/23 01:12:13;;;;;;;;;;;;;;;;;;5052937;28;1751;-66
2022/05/23 01:14:45;;;;;;;;;;;;;;;;;;5053933;28;1712;-65
2022/05/23 01:17:11;;;;;;;;;;;;;;;;;;5048033;28;1643;-66
2022/05/23 01:19:36;;;;;;;;;;;;;;;;;;5051669;28;2056;-66
2022/05/23 01:22:05;;;;;;;;;;;;;;;;;;5051313;28;1973;-65
2022/05/23 01:24:30;;;;;;;;;;;;;;;;;;5055169;28;1651;-65
2022/05/23 01:26:56;;;;;;;;;;;;;;;;;;5054391;28;1914;-65
2022/05/23 01:29:21;;;;;;;;;;;;;;;;;;5050570;28;1597;-66
2022/05/23 01:31:46;;;;;;;;;;;;;;;;;;5049589;28;1722;-65
2022/05/23 01:34:12;;;;;;;;;;;;;;;;;;5068610;28;1807;-65
2022/05/23 01:36:37;;;;;;;;;;;;;;;;;;5047436;28;1718;-65
2022/05/23 01:39:02;;;;;;;;;;;;;;;;;;5046159;28;2001;-65
2022/05/23 01:41:27;;;;;;;;;;;;;;;;;;5052498;28;1964;-65
2022/05/23 01:43:53;;;;;;;;;;;;;;;;;;5048242;28;1830;-65
2022/05/23 01:46:19;;;;;;;;;;;;;;;;;;5046885;28;1956;-65
2022/05/23 01:48:44;;;;;;;;;;;;;;;;;;5048067;28;1970;-65
2022/05/23 01:51:09;;;;;;;;;;;;;;;;;;5056433;28;1930;-65
2022/05/23 01:53:34;;;;;;;;;;;;;;;;;;5047108;28;1930;-65
2022/05/23 01:56:03;;;;;;;;;;;;;;;;;;5045454;28;1914;-65
2022/05/23 02:01:13;;;;;;;;;;;;;;;;;;5056269;28;1897;-65
2022/05/23 02:03:38;;;;;;;;;;;;;;;;;;5053080;28;1922;-65
2022/05/23 02:06:03;;;;;;;;;;;;;;;;;;5052658;28;1568;-65
2022/05/23 02:08:28;;;;;;;;;;;;;;;;;;5052295;28;1722;-65
2022/05/23 02:10:53;;;;;;;;;;;;;;;;;;5053451;28;1866;-65
2022/05/23 02:13:18;;;;;;;;;;;;;;;;;;5056348;28;1811;-65
2022/05/23 02:15:44;;;;;;;;;;;;;;;;;;5056992;28;1606;-65
2022/05/23 02:18:09;;;;;;;;;;;;;;;;;;5046622;28;1962;-64
2022/05/23 02:20:34;;;;;;;;;;;;;;;;;;5056109;28;1973;-64
2022/05/23 02:23:00;;;;;;;;;;;;;;;;;;5048059;28;1930;-65
2022/05/23 02:25:25;;;;;;;;;;;;;;;;;;5043410;28;1969;-65
2022/05/23 02:27:51;;;;;;;;;;;;;;;;;;5051600;28;1970;-65
2022/05/23 02:30:16;;;;;;;;;;;;;;;;;;5047480;28;1744;-64
2022/05/23 02:32:41;;;;;;;;;;;;;;;;;;5054138;28;1652;-65
2022/05/23 02:35:07;;;;;;;;;;;;;;;;;;5050541;28;1589;-65
2022/05/23 02:37:32;;;;;;;;;;;;;;;;;;5058162;28;1663;-65
2022/05/23 02:39:57;;;;;;;;;;;;;;;;;;5046619;28;1870;-65
2022/05/23 02:42:22;;;;;;;;;;;;;;;;;;5046758;28;2119;-65
2022/05/23 02:44:48;;;;;;;;;;;;;;;;;;5049950;28;1980;-65
2022/05/23 02:47:13;;;;;;;;;;;;;;;;;;5056513;28;1608;-65
2022/05/23 02:49:38;;;;;;;;;;;;;;;;;;5049630;28;1950;-65
2022/05/23 02:52:03;;;;;;;;;;;;;;;;;;5050019;28;1652;-65
2022/05/23 02:54:29;;;;;;;;;;;;;;;;;;5049438;28;1727;-65
2022/05/23 02:56:54;;;;;;;;;;;;;;;;;;5044537;28;1989;-65
2022/05/23 02:59:20;;;;;;;;;;;;;;;;;;5056811;28;1545;-64
2022/05/23 03:04:30;;;;;;;;;;;;;;;;;;5050461;28;1576;-64
2022/05/23 03:06:55;;;;;;;;;;;;;;;;;;5049748;28;1938;-64
2022/05/23 03:09:20;;;;;;;;;;;;;;;;;;5047862;28;1576;-65
2022/05/23 03:11:45;;;;;;;;;;;;;;;;;;5050769;28;1971;-65
2022/05/23 03:14:10;;;;;;;;;;;;;;;;;;5046983;28;1604;-66
2022/05/23 03:16:36;;;;;;;;;;;;;;;;;;5057155;28;1584;-65
2022/05/23 03:19:01;;;;;;;;;;;;;;;;;;5050774;28;1705;-64
2022/05/23 03:26:58;;;;;;;;;;;;;;;;;;5041202;28;1767;-65
2022/05/23 03:29:23;;;;;;;;;;;;;;;;;;5048710;28;1838;-65
2022/05/23 03:31:49;;;;;;;;;;;;;;;;;;5045825;28;1701;-65
2022/05/23 03:34:14;;;;;;;;;;;;;;;;;;5047353;28;1917;-65
2022/05/23 03:36:39;;;;;;;;;;;;;;;;;;5048637;28;1909;-65
2022/05/23 03:39:04;;;;;;;;;;;;;;;;;;5058418;28;2190;-65
2022/05/23 03:41:29;;;;;;;;;;;;;;;;;;5050107;28;1886;-65
2022/05/23 03:43:55;;;;;;;;;;;;;;;;;;5047366;28;1914;-64
2022/05/23 03:46:21;;;;;;;;;;;;;;;;;;5049048;28;1580;-64
2022/05/23 03:48:46;;;;;;;;;;;;;;;;;;5046314;28;1667;-64
2022/05/23 03:51:12;;;;;;;;;;;;;;;;;;5050644;28;1807;-65
2022/05/23 03:53:37;;;;;;;;;;;;;;;;;;5049260;28;1726;-65
2022/05/23 03:56:03;;;;;;;;;;;;;;;;;;5048590;28;1891;-65
2022/05/23 03:58:28;;;;;;;;;;;;;;;;;;5054226;28;1664;-65
2022/05/23 04:01:02;;;;;;;;;;;;;;;;;;5052079;28;1890;-65
2022/05/23 04:03:28;;;;;;;;;;;;;;;;;;5048456;28;1640;-65
2022/05/23 04:05:56;;;;;;;;;;;;;;;;;;5053421;28;1958;-65
2022/05/23 04:08:21;;;;;;;;;;;;;;;;;;5052744;28;1950;-65
2022/05/23 04:10:46;;;;;;;;;;;;;;;;;;5049433;28;1950;-66
2022/05/23 04:13:12;;;;;;;;;;;;;;;;;;5053884;28;1850;-66
2022/05/23 04:15:40;;;;;;;;;;;;;;;;;;5053261;28;1938;-66
2022/05/23 04:18:05;;;;;;;;;;;;;;;;;;5049598;28;1796;-66
2022/05/23 04:20:31;;;;;;;;;;;;;;;;;;5051680;28;1649;-66
2022/05/23 04:22:56;;;;;;;;;;;;;;;;;;5051839;28;1898;-66
2022/05/23 04:25:21;;;;;;;;;;;;;;;;;;5054325;28;1977;-66
2022/05/23 04:27:47;;;;;;;;;;;;;;;;;;5055124;28;1578;-66
2022/05/23 04:30:12;;;;;;;;;;;;;;;;;;5055244;28;1981;-66
2022/05/23 04:35:22;;;;;;;;;;;;;;;;;;5049638;28;1751;-66
2022/05/23 04:37:48;;;;;;;;;;;;;;;;;;5055147;28;1668;-65
2022/05/23 04:40:15;;;;;;;;;;;;;;;;;;5049687;28;1941;-65
2022/05/23 04:42:40;;;;;;;;;;;;;;;;;;5053116;28;1992;-66
2022/05/23 04:45:05;;;;;;;;;;;;;;;;;;5049246;28;1903;-65
2022/05/23 04:50:15;;;;;;;;;;;;;;;;;;5055138;28;1561;-65
2022/05/23 04:52:40;;;;;;;;;;;;;;;;;;5057489;28;1937;-65
2022/05/23 04:55:06;;;;;;;;;;;;;;;;;;5052169;28;1969;-65
2022/05/23 04:57:33;;;;;;;;;;;;;;;;;;5049583;28;1695;-65
2022/05/23 04:59:59;;;;;;;;;;;;;;;;;;5053835;28;1910;-65
2022/05/23 05:02:24;;;;;;;;;;;;;;;;;;5047788;28;1979;-65
2022/05/23 05:04:49;;;;;;;;;;;;;;;;;;5052787;28;1933;-65
2022/05/23 05:07:15;;;;;;;;;;;;;;;;;;5050236;28;1707;-65
2022/05/23 05:09:40;;;;;;;;;;;;;;;;;;5052821;28;1767;-66
2022/05/23 05:12:06;;;;;;;;;;;;;;;;;;5048613;28;1850;-65
2022/05/23 05:14:34;;;;;;;;;;;;;;;;;;5051558;28;1754;-65
2022/05/23 05:16:59;;;;;;;;;;;;;;;;;;5050378;28;2084;-65
2022/05/23 05:19:25;;;;;;;;;;;;;;;;;;5051461;28;1619;-66
2022/05/23 05:21:50;;;;;;;;;;;;;;;;;;5052962;28;1941;-66
2022/05/23 05:24:15;;;;;;;;;;;;;;;;;;5052808;28;1655;-65
2022/05/23 05:26:40;;;;;;;;;;;;;;;;;;5051639;28;1779;-65
2022/05/23 05:29:06;;;;;;;;;;;;;;;;;;5048927;28;1898;-65
2022/05/23 05:31:37;;;;;;;;;;;;;;;;;;5052479;28;1644;-65
2022/05/23 05:34:06;;;;;;;;;;;;;;;;;;5053304;28;1641;-63
2022/05/23 05:36:33;;;;;;;;;;;;;;;;;;5053881;28;1636;-66
2022/05/23 05:39:01;;;;;;;;;;;;;;;;;;5051943;28;1780;-66
2022/05/23 05:41:41;;;;;;;;;;;;;;;;;;5051850;28;1898;-66
2022/05/23 05:44:09;;;;;;;;;;;;;;;;;;5047536;28;1777;-66
2022/05/23 05:46:37;;;;;;;;;;;;;;;;;;5051239;28;1889;-66
2022/05/23 05:49:04;;;;;;;;;;;;;;;;;;5051679;28;1934;-65
2022/05/23 05:51:30;;;;;;;;;;;;;;;;;;5046556;28;2061;-64
2022/05/23 05:53:55;;;;;;;;;;;;;;;;;;5052065;28;1649;-65
2022/05/23 05:56:20;;;;;;;;;;;;;;;;;;5048250;28;1950;-65
2022/05/23 05:58:46;;;;;;;;;;;;;;;;;;5045910;28;1994;-65
2022/05/23 06:01:11;;;;;;;;;;;;;;;;;;5050566;28;1956;-65
2022/05/23 06:03:36;;;;;;;;;;;;;;;;;;5048864;28;1982;-65
2022/05/23 06:11:30;;;;;;;;;;;;;;;;;;5051694;28;1636;-65
2022/05/23 06:13:57;;;;;;;;;;;;;;;;;;5049231;28;1604;-66
2022/05/23 06:16:22;;;;;;;;;;;;;;;;;;5045554;28;1692;-65
2022/05/23 06:18:48;;;;;;;;;;;;;;;;;;5053328;28;1600;-65
2022/05/23 06:21:13;;;;;;;;;;;;;;;;;;5055620;28;1894;-65
2022/05/23 06:23:39;;;;;;;;;;;;;;;;;;5051423;28;1862;-64
2022/05/23 06:26:04;;;;;;;;;;;;;;;;;;5049856;28;1684;-64
2022/05/23 06:28:29;;;;;;;;;;;;;;;;;;5057266;28;1627;-65
2022/05/23 06:30:57;;;;;;;;;;;;;;;;;;5057650;28;1562;-65
2022/05/23 06:33:22;;;;;;;;;;;;;;;;;;5059699;28;1530;-64
2022/05/23 06:35:48;;;;;;;;;;;;;;;;;;5065891;28;1760;-64
2022/05/23 06:38:13;;;;;;;;;;;;;;;;;;5057372;28;1491;-64
2022/05/23 06:40:38;;;;;;;;;;;;;;;;;;5058630;28;1648;-65
2022/05/23 06:43:03;;;;;;;;;;;;;;;;;;5057060;28;1960;-63
2022/05/23 06:45:29;;;;;;;;;;;;;;;;;;5060592;28;1350;-63
2022/05/23 06:47:54;;;;;;;;;;;;;;;;;;5056303;28;1736;-63
2022/05/23 06:50:20;;;;;;;;;;;;;;;;;;5074243;28;1306;-64
2022/05/23 06:52:45;;;;;;;;;;;;;;;;;;5058415;28;1811;-65
2022/05/23 06:55:10;;;;;;;;;;;;;;;;;;5059129;28;1215;-64
2022/05/23 06:57:35;;;;;;;;;;;;;;;;;;5060348;28;1188;-63
2022/05/23 07:00:01;;;;;;;;;;;;;;;;;;5060326;28;811;-64
2022/05/23 07:02:26;;;;;;;;;;;;;;;;;;5059311;28;1891;-63
2022/05/23 07:13:03;;;;;;;;;;;;;;;;;;5060468;28;820;-63
2022/05/23 07:15:35;;;;;;;;;;;;;;;;;;5059059;28;1037;-65
2022/05/23 07:18:00;;;;;;;;;;;;;;;;;;5059763;28;1259;-64
2022/05/23 07:20:26;;;;;;;;;;;;;;;;;;5057888;28;1514;-68
2022/05/23 07:22:51;;;;;;;;;;;;;;;;;;5055005;28;1886;-68
2022/05/23 07:25:16;;;;;;;;;;;;;;;;;;5061438;28;1452;-67
2022/05/23 07:27:42;;;;;;;;;;;;;;;;;;5068630;28;1265;-67
2022/05/23 07:30:07;;;;;;;;;;;;;;;;;;5076493;28;1312;-66
2022/05/23 07:32:32;;;;;;;;;;;;;;;;;;5071192;28;1253;-67
2022/05/23 07:34:57;;;;;;;;;;;;;;;;;;5065548;28;1311;-68
2022/05/23 07:37:23;;;;;;;;;;;;;;;;;;5073089;28;1836;-69
2022/05/23 07:39:48;;;;;;;;;;;;;;;;;;5069044;28;1740;-68
2022/05/23 07:42:13;;;;;;;;;;;;;;;;;;5075364;28;1952;-69
2022/05/23 07:44:39;;;;;;;;;;;;;;;;;;5069844;28;1493;-68
2022/05/23 07:47:06;;;;;;;;;;;;;;;;;;5074715;28;1249;-70
2022/05/23 07:49:32;;;;;;;;;;;;;;;;;;5069187;28;1339;-69
2022/05/23 07:51:57;;;;;;;;;;;;;;;;;;5064221;28;1431;-70
2022/05/23 08:02:35;;;;;;;;;;;;;;;;;;5071016;28;1937;-68
2022/05/23 08:05:00;;;;;;;;;;;;;;;;;;5064625;28;1384;-68
2022/05/23 08:07:28;;;;;;;;;;;;;;;;;;5066349;28;1257;-69
2022/05/23 08:09:53;;;;;;;;;;;;;;;;;;5064876;28;1592;-69
2022/05/23 08:12:19;;;;;;;;;;;;;;;;;;5067722;28;1464;-67
2022/05/23 08:14:44;;;;;;;;;;;;;;;;;;5057608;28;1489;-68
2022/05/23 08:17:10;;;;;;;;;;;;;;;;;;5055999;28;1486;-68
2022/05/23 08:19:36;;;;;;;;;;;;;;;;;;5064625;28;1479;-67
2022/05/23 08:22:01;;;;;;;;;;;;;;;;;;5068961;28;1960;-68
2022/05/23 08:24:26;;;;;;;;;;;;;;;;;;5070008;28;1398;-69
2022/05/23 08:26:53;;;;;;;;;;;;;;;;;;5071359;28;1468;-68
2022/05/23 08:29:18;;;;;;;;;;;;;;;;;;5073184;28;1395;-68
2022/05/23 08:31:44;;;;;;;;;;;;;;;;;;5072219;28;1242;-68
2022/05/23 08:34:09;;;;;;;;;;;;;;;;;;5071203;28;1242;-68
2022/05/23 08:36:34;;;;;;;;;;;;;;;;;;5067097;28;1419;-68
2022/05/23 08:39:00;;;;;;;;;;;;;;;;;;5074206;28;1479;-68
2022/05/23 08:41:31;;;;;;;;;;;;;;;;;;5068904;28;1870;-69
2022/05/23 08:44:05;;;;;;;;;;;;;;;;;;5071460;28;1234;-69
2022/05/23 08:46:45;;;;;;;;;;;;;;;;;;5070049;28;1258;-69
2022/05/23 08:49:15;;;;;;;;;;;;;;;;;;5056563;28;1626;-68
2022/05/23 08:51:43;;;;;;;;;;;;;;;;;;5066257;28;1231;-68
2022/05/23 08:54:14;;;;;;;;;;;;;;;;;;5068692;28;1411;-68
2022/05/23 08:56:47;;;;;;;;;;;;;;;;;;5070735;28;1294;-68
2022/05/23 08:59:22;;;;;;;;;;;;;;;;;;5063492;28;1600;-68
2022/05/23 09:01:48;;;;;;;;;;;;;;;;;;5072793;28;1894;-67
2022/05/23 09:04:32;;;;;;;;;;;;;;;;;;5071144;28;1463;-68
2022/05/23 09:06:59;;;;;;;;;;;;;;;;;;5068099;28;1426;-68
2022/05/23 09:09:25;;;;;;;;;;;;;;;;;;5071465;28;1326;-68
2022/05/23 09:11:52;;;;;;;;;;;;;;;;;;5073489;28;1209;-67
2022/05/23 09:14:19;;;;;;;;;;;;;;;;;;5070841;28;1383;-67
2022/05/23 09:16:46;;;;;;;;;;;;;;;;;;5070182;28;1266;-68
2022/05/23 09:19:27;;;;;;;;;;;;;;;;;;5068000;28;1301;-68
2022/05/23 09:22:13;;;;;;;;;;;;;;;;;;5070519;28;1969;-68
2022/05/23 09:24:40;;;;;;;;;;;;;;;;;;5070353;28;1275;-66
2022/05/23 09:27:10;;;;;;;;;;;;;;;;;;5066176;28;1482;-68
2022/05/23 09:29:36;;;;;;;;;;;;;;;;;;5071991;28;1334;-67
2022/05/23 09:32:08;;;;;;;;;;;;;;;;;;5073042;28;1257;-67
2022/05/23 09:34:35;;;;;;;;;;;;;;;;;;5068727;28;1457;-68
2022/05/23 09:37:01;;;;;;;;;;;;;;;;;;5065919;28;1419;-67
2022/05/23 09:39:29;;;;;;;;;;;;;;;;;;5070283;28;1369;-71
2022/05/23 09:47:46;;;;;;;;;;;;;;;;;;5068495;28;1043;-71
2022/05/23 09:50:28;;;;;;;;;;;;;;;;;;5065436;28;1209;-71
2022/05/23 09:52:57;;;;;;;;;;;;;;;;;;5072068;28;1309;-71
2022/05/23 09:55:28;;;;;;;;;;;;;;;;;;5064793;28;1305;-71
2022/05/23 09:57:54;;;;;;;;;;;;;;;;;;5066968;28;1346;-71
2022/05/23 10:00:23;;;;;;;;;;;;;;;;;;5067682;28;1675;-72
2022/05/23 10:02:50;;;;;;;;;;;;;;;;;;5071933;28;1902;-70
2022/05/23 10:05:21;;;;;;;;;;;;;;;;;;5067301;28;1123;-72
2022/05/23 10:07:48;;;;;;;;;;;;;;;;;;5067327;28;1430;-72
2022/05/23 10:10:33;;;;;;;;;;;;;;;;;;5069490;28;1324;-71
2022/05/23 10:13:17;;;;;;;;;;;;;;;;;;5070597;28;1695;-73
2022/05/23 10:15:43;;;;;;;;;;;;;;;;;;5064888;28;1545;-72
2022/05/23 10:18:09;;;;;;;;;;;;;;;;;;5066969;28;1369;-72
2022/05/23 10:20:39;;;;;;;;;;;;;;;;;;5069997;28;1398;-72
2022/05/23 10:23:13;;;;;;;;;;;;;;;;;;5073811;28;1909;-71
2022/05/23 10:25:44;;;;;;;;;;;;;;;;;;5064392;28;1450;-69
2022/05/23 10:28:13;;;;;;;;;;;;;;;;;;5068195;28;1267;-70
2022/05/23 10:30:40;;;;;;;;;;;;;;;;;;5074018;28;1199;-70
2022/05/23 10:33:09;;;;;;;;;;;;;;;;;;5071860;28;1250;-69
2022/05/23 10:35:44;;;;;;;;;;;;;;;;;;5073235;28;1415;-70
2022/05/23 10:44:04;;;;;;;;;;;;;;;;;;5074136;28;1083;-71
2022/05/23 10:46:33;;;;;;;;;;;;;;;;;;5036524;28;1240;-70
2022/05/23 10:49:17;;;;;;;;;;;;;;;;;;5066827;28;1732;-67
2022/05/23 10:52:00;;;;;;;;;;;;;;;;;;5072300;28;1312;-68
2022/05/23 10:54:32;;;;;;;;;;;;;;;;;;5064750;28;1476;-68
2022/05/23 10:57:03;;;;;;;;;;;;;;;;;;5070828;28;1415;-69
2022/05/23 10:59:34;;;;;;;;;;;;;;;;;;5067513;28;1530;-69
2022/05/23 11:02:02;;;;;;;;;;;;;;;;;;5060571;28;1913;-69
2022/05/23 11:04:40;;;;;;;;;;;;;;;;;;5077957;28;1360;-69
2022/05/23 11:07:13;;;;;;;;;;;;;;;;;;5065767;28;1511;-70
2022/05/23 11:09:48;;;;;;;;;;;;;;;;;;5068719;28;1692;-69
2022/05/23 11:12:32;;;;;;;;;;;;;;;;;;5070307;28;1226;-69
2022/05/23 11:15:03;;;;;;;;;;;;;;;;;;5074106;28;1443;-69
2022/05/23 11:17:51;;;;;;;;;;;;;;;;;;5072239;28;1207;-69
2022/05/23 11:20:29;;;;;;;;;;;;;;;;;;5063165;28;1465;-69
2022/05/23 11:23:12;;;;;;;;;;;;;;;;;;5076294;28;1957;-68
2022/05/23 11:25:44;;;;;;;;;;;;;;;;;;5066311;28;1744;-69
2022/05/23 11:33:58;;;;;;;;;;;;;;;;;;5072507;28;1280;-68
2022/05/23 11:36:33;;;;;;;;;;;;;;;;;;5073319;28;1245;-68
2022/05/23 11:38:59;;;;;;;;;;;;;;;;;;5064981;28;1445;-68
2022/05/23 11:41:38;;;;;;;;;;;;;;;;;;5071080;28;1905;-69
2022/05/23 11:44:14;;;;;;;;;;;;;;;;;;5069993;28;1490;-71
2022/05/23 11:46:59;;;;;;;;;;;;;;;;;;5072345;28;1245;-70
2022/05/23 11:49:40;;;;;;;;;;;;;;;;;;5074205;28;1251;-70
2022/05/23 11:52:15;;;;;;;;;;;;;;;;;;5077536;28;1269;-72
2022/05/23 11:54:40;;;;;;;;;;;;;;;;;;5060175;28;1485;-72
2022/05/23 11:57:05;;;;;;;;;;;;;;;;;;5069353;28;1458;-71
2022/05/23 11:59:30;;;;;;;;;;;;;;;;;;5067101;28;1573;-71
2022/05/23 12:02:08;;;;;;;;;;;;;;;;;;5071788;28;1894;-71
2022/05/23 12:04:34;;;;;;;;;;;;;;;;;;5065109;28;1605;-71
2022/05/23 12:06:59;;;;;;;;;;;;;;;;;;5064851;28;1260;-70
2022/05/23 12:09:26;;;;;;;;;;;;;;;;;;5068693;28;1271;-70
2022/05/23 12:11:52;;;;;;;;;;;;;;;;;;5075080;28;1393;-69
2022/05/23 12:14:33;;;;;;;;;;;;;;;;;;5068970;28;1434;-70
2022/05/23 12:16:58;;;;;;;;;;;;;;;;;;5069609;28;1264;-69
2022/05/23 12:19:28;;;;;;;;;;;;;;;;;;5061252;28;1399;-70
2022/05/23 12:21:54;;;;;;;;;;;;;;;;;;5072440;28;1897;-71
2022/05/23 12:24:30;;;;;;;;;;;;;;;;;;5076719;28;1254;-71
2022/05/23 12:26:59;;;;;;;;;;;;;;;;;;5074236;28;1438;-70
2022/05/23 12:29:28;;;;;;;;;;;;;;;;;;5064981;28;1506;-70
2022/05/23 12:32:05;;;;;;;;;;;;;;;;;;5071537;28;1246;-70
2022/05/23 12:34:39;;;;;;;;;;;;;;;;;;5072931;28;1211;-69
2022/05/23 12:37:05;;;;;;;;;;;;;;;;;;5072579;28;1293;-69
2022/05/23 12:39:42;;;;;;;;;;;;;;;;;;5069092;28;1247;-68
2022/05/23 12:42:14;;;;;;;;;;;;;;;;;;5069463;28;1889;-69
2022/05/23 12:44:51;;;;;;;;;;;;;;;;;;5066436;28;1190;-69
2022/05/23 12:47:25;;;;;;;;;;;;;;;;;;5069064;28;1410;-69
2022/05/23 12:49:59;;;;;;;;;;;;;;;;;;5070644;28;1321;-69
2022/05/23 12:52:35;;;;;;;;;;;;;;;;;;5064116;28;1516;-69
2022/05/23 12:55:18;;;;;;;;;;;;;;;;;;5069189;28;1360;-70
2022/05/23 12:57:44;;;;;;;;;;;;;;;;;;5073385;28;1588;-69
2022/05/23 13:00:15;;;;;;;;;;;;;;;;;;5059468;28;1506;-69
2022/05/23 13:03:01;;;;;;;;;;;;;;;;;;5069898;28;1948;-69
2022/05/23 13:05:33;;;;;;;;;;;;;;;;;;5071681;28;1088;-69
2022/05/23 13:07:58;;;;;;;;;;;;;;;;;;5070685;28;1305;-69
2022/05/23 13:10:34;;;;;;;;;;;;;;;;;;5073608;28;1270;-69
2022/05/23 13:13:09;;;;;;;;;;;;;;;;;;5068579;28;1375;-70
2022/05/23 13:15:35;;;;;;;;;;;;;;;;;;5064246;28;1367;-70
2022/05/23 13:23:30;;;;;;;;;;;;;;;;;;5066408;28;1250;-68
2022/05/23 13:25:56;;;;;;;;;;;;;;;;;;5069592;28;1382;-68
2022/05/23 13:28:22;;;;;;;;;;;;;;;;;;5068247;28;1228;-68
2022/05/23 13:30:52;;;;;;;;;;;;;;;;;;5074506;28;1261;-68
2022/05/23 13:33:29;;;;;;;;;;;;;;;;;;5068357;28;1369;-68
2022/05/23 13:35:59;;;;;;;;;;;;;;;;;;5071670;28;1183;-68
2022/05/23 13:38:25;;;;;;;;;;;;;;;;;;5060554;28;1367;-68
2022/05/23 13:40:52;;;;;;;;;;;;;;;;;;5061194;28;1798;-68
2022/05/23 13:43:20;;;;;;;;;;;;;;;;;;5060078;28;1890;-68
2022/05/23 13:45:48;;;;;;;;;;;;;;;;;;5076468;28;1349;-68
2022/05/23 13:48:17;;;;;;;;;;;;;;;;;;5049174;28;1574;-68
2022/05/23 13:50:46;;;;;;;;;;;;;;;;;;5048847;28;1261;-68
2022/05/23 13:53:14;;;;;;;;;;;;;;;;;;5050945;28;1545;-68
2022/05/23 13:55:40;;;;;;;;;;;;;;;;;;5060958;28;1274;-68
2022/05/23 13:58:14;;;;;;;;;;;;;;;;;;5060193;28;1756;-69
2022/05/23 14:00:40;;;;;;;;;;;;;;;;;;5060851;28;1467;-68
2022/05/23 14:03:10;;;;;;;;;;;;;;;;;;5059534;28;1898;-68
2022/05/23 14:05:40;;;;;;;;;;;;;;;;;;5057994;28;1365;-68
2022/05/23 14:08:05;;;;;;;;;;;;;;;;;;5060367;28;1502;-69
2022/05/23 14:10:30;;;;;;;;;;;;;;;;;;5060314;28;1068;-69
2022/05/23 14:12:57;;;;;;;;;;;;;;;;;;5061817;28;850;-68
2022/05/23 14:15:27;;;;;;;;;;;;;;;;;;5061338;28;1526;-69
2022/05/23 14:17:53;;;;;;;;;;;;;;;;;;5056714;28;1756;-70
2022/05/23 14:20:21;;;;;;;;;;;;;;;;;;5061751;28;1215;-69
2022/05/23 14:23:05;;;;;;;;;;;;;;;;;;5059771;28;1910;-70
2022/05/23 14:25:38;;;;;;;;;;;;;;;;;;5071675;28;1476;-70
2022/05/23 14:28:14;;;;;;;;;;;;;;;;;;5059500;28;1219;-70
2022/05/23 14:30:41;;;;;;;;;;;;;;;;;;5059219;28;1507;-70
2022/05/23 14:33:17;;;;;;;;;;;;;;;;;;5061252;28;1284;-70
2022/05/23 14:35:57;;;;;;;;;;;;;;;;;;5060381;28;945;-69
2022/05/23 14:38:25;;;;;;;;;;;;;;;;;;5055797;28;1704;-69
2022/05/23 14:40:50;;;;;;;;;;;;;;;;;;5066639;28;1306;-69
2022/05/23 14:43:20;;;;;;;;;;;;;;;;;;5066558;28;1949;-70
2022/05/23 14:45:53;;;;;;;;;;;;;;;;;;5061550;28;1450;-67
2022/05/23 14:48:27;;;;;;;;;;;;;;;;;;5061737;28;1302;-68
2022/05/23 14:50:55;;;;;;;;;;;;;;;;;;5066822;28;1335;-68
2022/05/23 14:56:15;;;;;;;;;;;;;;;;;;5075411;28;1165;-68
2022/05/23 15:01:25;;;;;;;;;;;;;;;;;;5071668;28;1901;-68
2022/05/23 15:03:51;;;;;;;;;;;;;;;;;;5068432;28;1442;-67
2022/05/23 15:06:16;;;;;;;;;;;;;;;;;;5064568;28;1457;-68
2022/05/23 15:08:42;;;;;;;;;;;;;;;;;;5068176;28;1344;-67
2022/05/23 15:11:15;;;;;;;;;;;;;;;;;;5073160;28;1249;-68
2022/05/23 15:13:40;;;;;;;;;;;;;;;;;;5063092;28;1560;-68
2022/05/23 15:16:05;;;;;;;;;;;;;;;;;;5069896;28;1064;-68
2022/05/23 15:18:31;;;;;;;;;;;;;;;;;;5069947;28;1251;-67
2022/05/23 15:20:57;;;;;;;;;;;;;;;;;;5073601;28;1304;-68
2022/05/23 15:23:22;;;;;;;;;;;;;;;;;;5070557;28;1963;-68
2022/05/23 15:25:48;;;;;;;;;;;;;;;;;;5067282;28;1273;-68
2022/05/23 15:28:13;;;;;;;;;;;;;;;;;;5066886;28;1498;-68
2022/05/23 15:30:38;;;;;;;;;;;;;;;;;;5064149;28;1254;-68
2022/05/23 15:33:03;;;;;;;;;;;;;;;;;;5073824;28;1273;-68
2022/05/23 15:35:29;;;;;;;;;;;;;;;;;;5068059;28;1301;-69
2022/05/23 15:37:54;;;;;;;;;;;;;;;;;;5070234;28;1347;-69
2022/05/23 15:40:19;;;;;;;;;;;;;;;;;;5063020;28;1488;-69
2022/05/23 15:42:47;;;;;;;;;;;;;;;;;;5061742;28;1882;-69
2022/05/23 15:45:17;;;;;;;;;;;;;;;;;;5067917;28;1088;-68
2022/05/23 15:47:42;;;;;;;;;;;;;;;;;;5063706;28;1337;-69
2022/05/23 15:50:09;;;;;;;;;;;;;;;;;;5069112;28;1411;-69
2022/05/23 15:52:34;;;;;;;;;;;;;;;;;;5070410;28;1273;-68
2022/05/23 15:54:59;;;;;;;;;;;;;;;;;;5072521;28;1331;-69
2022/05/23 15:57:29;;;;;;;;;;;;;;;;;;5071078;28;1450;-68
2022/05/23 15:59:58;;;;;;;;;;;;;;;;;;5075258;28;1241;-68
2022/05/23 16:02:23;;;;;;;;;;;;;;;;;;5071446;28;1960;-69
2022/05/23 16:04:49;;;;;;;;;;;;;;;;;;5062588;28;1819;-68
2022/05/23 16:07:14;;;;;;;;;;;;;;;;;;5063940;28;1202;-68
2022/05/23 16:09:39;;;;;;;;;;;;;;;;;;5063187;28;1199;-69
2022/05/23 16:12:06;;;;;;;;;;;;;;;;;;5063672;28;787;-69
2022/05/23 16:14:31;;;;;;;;;;;;;;;;;;5062153;28;1808;-68
2022/05/23 16:16:59;;;;;;;;;;;;;;;;;;5060930;28;1412;-68
2022/05/23 16:19:25;;;;;;;;;;;;;;;;;;5062856;28;1271;-68
2022/05/23 16:21:50;;;;;;;;;;;;;;;;;;5062239;28;1944;-68
2022/05/23 16:24:16;;;;;;;;;;;;;;;;;;5063461;28;941;-68
2022/05/23 16:26:42;;;;;;;;;;;;;;;;;;5063264;28;878;-68
2022/05/23 16:29:07;;;;;;;;;;;;;;;;;;5062872;28;1268;-68
2022/05/23 16:31:33;;;;;;;;;;;;;;;;;;5059258;28;1752;-68
2022/05/23 16:36:42;;;;;;;;;;;;;;;;;;5056800;28;1494;-68
2022/05/23 16:39:09;;;;;;;;;;;;;;;;;;5061842;28;1259;-68
2022/05/23 16:41:35;;;;;;;;;;;;;;;;;;5059161;28;1949;-67
2022/05/23 16:44:01;;;;;;;;;;;;;;;;;;5057233;28;1627;-67
2022/05/23 16:46:26;;;;;;;;;;;;;;;;;;5061792;28;1419;-67
2022/05/23 16:48:51;;;;;;;;;;;;;;;;;;5061985;28;1259;-67
2022/05/23 16:51:17;;;;;;;;;;;;;;;;;;5060968;28;1532;-67
2022/05/23 16:53:43;;;;;;;;;;;;;;;;;;5081258;28;1443;-67
2022/05/23 16:56:08;;;;;;;;;;;;;;;;;;5055852;28;1791;-68
2022/05/23 16:58:33;;;;;;;;;;;;;;;;;;5059652;28;1772;-67
2022/05/23 17:00:59;;;;;;;;;;;;;;;;;;5060977;28;1341;-68
2022/05/23 17:03:25;;;;;;;;;;;;;;;;;;5062360;28;1957;-67
2022/05/23 17:05:51;;;;;;;;;;;;;;;;;;5061093;28;1784;-68
2022/05/23 17:08:17;;;;;;;;;;;;;;;;;;5059982;28;1772;-68
2022/05/23 17:10:42;;;;;;;;;;;;;;;;;;5061769;28;1315;-67
2022/05/23 17:13:08;;;;;;;;;;;;;;;;;;5062223;28;909;-68
2022/05/23 17:15:34;;;;;;;;;;;;;;;;;;5062478;28;783;-69
2022/05/23 17:18:00;;;;;;;;;;;;;;;;;;5060180;28;1200;-68
2022/05/23 17:20:25;;;;;;;;;;;;;;;;;;5057500;28;1803;-68
2022/05/23 17:22:52;;;;;;;;;;;;;;;;;;5060827;28;1909;-68
2022/05/23 17:25:17;;;;;;;;;;;;;;;;;;5062349;28;953;-68
2022/05/23 17:27:42;;;;;;;;;;;;;;;;;;5060224;28;1819;-67
2022/05/23 17:30:08;;;;;;;;;;;;;;;;;;5061948;28;996;-68
2022/05/23 17:32:36;;;;;;;;;;;;;;;;;;5062196;28;755;-68
2022/05/23 17:35:02;;;;;;;;;;;;;;;;;;5055493;28;1796;-67
2022/05/23 17:37:28;;;;;;;;;;;;;;;;;;5053647;28;1458;-68
2022/05/23 17:39:53;;;;;;;;;;;;;;;;;;5056724;28;1346;-67
2022/05/23 17:42:18;;;;;;;;;;;;;;;;;;5059534;28;1897;-67
2022/05/23 17:44:43;;;;;;;;;;;;;;;;;;5062045;28;964;-68
2022/05/23 17:47:09;;;;;;;;;;;;;;;;;;5061830;28;854;-68
2022/05/23 17:49:36;;;;;;;;;;;;;;;;;;5060150;28;1783;-67
2022/05/23 17:52:01;;;;;;;;;;;;;;;;;;5061477;28;1160;-67
2022/05/23 17:54:27;;;;;;;;;;;;;;;;;;5061799;28;1039;-68
2022/05/23 17:56:52;;;;;;;;;;;;;;;;;;5059208;28;1808;-68
2022/05/23 17:59:17;;;;;;;;;;;;;;;;;;5059579;28;1322;-68
2022/05/23 18:01:43;;;;;;;;;;;;;;;;;;5061608;28;1890;-68
2022/05/23 18:04:08;;;;;;;;;;;;;;;;;;5060428;28;1744;-67
2022/05/23 18:06:34;;;;;;;;;;;;;;;;;;5061218;28;1214;-67
2022/05/23 18:08:59;;;;;;;;;;;;;;;;;;5060642;28;1197;-67
2022/05/23 18:11:24;;;;;;;;;;;;;;;;;;5059369;28;1736;-68
2022/05/23 18:19:22;;;;;;;;;;;;;;;;;;5056599;28;1457;-67
2022/05/23 18:21:48;;;;;;;;;;;;;;;;;;5058779;28;1911;-68
2022/05/23 18:24:14;;;;;;;;;;;;;;;;;;5061334;28;1108;-68
2022/05/23 18:26:40;;;;;;;;;;;;;;;;;;5061206;28;858;-68
2022/05/23 18:29:06;;;;;;;;;;;;;;;;;;5059412;28;1443;-67